Amalga, Utah
Current Conditions -  °F | °C
As of 7:17 AM on Sunday 21 Dec 2014 (Local Time) from KLGU Reporting Station
Light Rain Light Rain  
Wind Chill: 33°   Ceiling: 3000
Heat Index: 40°   Visibility: 10mi
Dew Point: 35°   Wind: 13mph
Humidity: 83%   Direction: 170°S
Pressure: 29.9"   Gusts: NA
Location:  41.8466°N, 111.898°W
Report Text: KLGU 211417Z AUTO 17011KT 10SM -RA BKN030 OVC037 04/02 A2990 RMK AO2 P0002 T00440017
Loading
Personal Weather Stations






























Interactive Weather Map New forecast layout! Learn more

10-Day Weather Forecast

Advertisements
Track Severe Weather on mobile